createdAt,value
2019-03-08T00:01:00.302Z,7.83
2019-03-08T00:03:08.071Z,7.77
2019-03-08T00:05:14.337Z,7.71
2019-03-08T00:07:20.709Z,7.66
2019-03-08T00:09:27.070Z,7.66
2019-03-08T00:11:33.343Z,7.64
2019-03-08T00:13:39.591Z,7.67
2019-03-08T00:15:45.860Z,7.73
2019-03-08T00:17:52.117Z,7.84
2019-03-08T00:19:59.401Z,8.00
2019-03-08T00:22:08.621Z,8.08
2019-03-08T00:24:14.891Z,8.19
2019-03-08T00:26:21.133Z,8.28
2019-03-08T00:28:27.406Z,8.29
2019-03-08T00:30:34.176Z,8.27
2019-03-08T00:32:40.450Z,8.25
2019-03-08T00:34:46.800Z,8.20
2019-03-08T00:36:53.053Z,8.15
2019-03-08T00:38:59.347Z,8.09
2019-03-08T00:41:05.480Z,8.05
2019-03-08T00:43:11.724Z,8.03
2019-03-08T00:45:19.225Z,8.01
2019-03-08T00:47:25.507Z,8.05
2019-03-08T00:49:32.159Z,8.13
2019-03-08T00:51:38.425Z,8.23
2019-03-08T00:53:44.574Z,8.27
2019-03-08T00:55:50.823Z,8.28
2019-03-08T00:57:56.996Z,8.34
2019-03-08T01:00:03.881Z,8.26
2019-03-08T01:02:10.235Z,8.18
2019-03-08T01:04:16.711Z,8.19
2019-03-08T01:06:22.954Z,8.13
2019-03-08T01:08:29.204Z,8.16
2019-03-08T01:10:35.366Z,8.13
2019-03-08T01:12:41.539Z,8.09
2019-03-08T01:14:47.890Z,8.10
2019-03-08T01:16:54.155Z,8.06
2019-03-08T01:19:00.316Z,8.00
2019-03-08T01:21:06.562Z,8.04
2019-03-08T01:23:12.747Z,8.00
2019-03-08T01:25:21.383Z,8.12
2019-03-08T01:27:27.386Z,8.11
2019-03-08T01:29:34.057Z,8.05
2019-03-08T01:31:40.853Z,7.98
2019-03-08T01:33:46.984Z,7.93
2019-03-08T01:35:53.250Z,7.88
2019-03-08T01:37:59.508Z,7.88
2019-03-08T01:40:08.963Z,7.91
2019-03-08T01:42:15.220Z,7.84
2019-03-08T01:44:21.704Z,7.81
2019-03-08T01:46:28.038Z,7.78
2019-03-08T01:48:34.289Z,7.77
2019-03-08T01:50:41.166Z,7.78
2019-03-08T01:52:48.042Z,7.83
2019-03-08T01:54:54.109Z,7.88
2019-03-08T01:57:00.463Z,7.83
2019-03-08T01:59:06.724Z,7.84
2019-03-08T02:01:12.886Z,7.90
2019-03-08T02:03:19.047Z,7.86
2019-03-08T02:05:25.302Z,7.78
2019-03-08T02:07:33.192Z,7.69
2019-03-08T02:09:39.448Z,7.61
2019-03-08T02:11:46.012Z,7.64
2019-03-08T02:13:52.292Z,7.64
2019-03-08T02:15:58.531Z,7.64
2019-03-08T02:18:05.007Z,7.66
2019-03-08T02:20:15.102Z,7.70
2019-03-08T02:22:21.416Z,7.72
2019-03-08T02:24:27.681Z,7.68
2019-03-08T02:26:34.264Z,7.65
2019-03-08T02:28:40.525Z,7.58
2019-03-08T02:30:46.689Z,7.54
2019-03-08T02:32:52.922Z,7.54
2019-03-08T02:34:59.089Z,7.57
2019-03-08T02:37:06.809Z,7.51
2019-03-08T02:39:13.250Z,7.50
2019-03-08T02:41:19.813Z,7.42
2019-03-08T02:43:26.083Z,7.39
2019-03-08T02:45:32.232Z,7.39
2019-03-08T02:47:38.493Z,7.44
2019-03-08T02:49:44.752Z,7.42
2019-03-08T02:51:50.899Z,7.40
2019-03-08T02:53:57.075Z,7.38
2019-03-08T02:56:03.324Z,7.39
2019-03-08T02:58:09.475Z,7.31
2019-03-08T03:00:19.017Z,7.26
2019-03-08T03:02:25.270Z,7.34
2019-03-08T03:04:31.548Z,7.38
2019-03-08T03:06:37.895Z,7.41
2019-03-08T03:08:44.064Z,7.46
2019-03-08T03:10:50.228Z,7.46
2019-03-08T03:12:56.381Z,7.48
2019-03-08T03:15:02.640Z,7.48
2019-03-08T03:17:09.096Z,7.45
2019-03-08T03:19:15.259Z,7.42
2019-03-08T03:21:21.518Z,7.40
2019-03-08T03:23:27.773Z,7.42
2019-03-08T03:25:34.051Z,7.42
2019-03-08T03:27:40.300Z,7.38
2019-03-08T03:29:46.573Z,7.32
2019-03-08T03:31:52.833Z,7.29
2019-03-08T03:33:59.583Z,7.30
2019-03-08T03:36:05.939Z,7.29
2019-03-08T03:38:12.234Z,7.39
2019-03-08T03:40:20.726Z,7.33
2019-03-08T03:42:26.985Z,7.23
2019-03-08T03:44:33.354Z,7.25
2019-03-08T03:46:39.609Z,7.25
2019-03-08T03:48:45.868Z,7.23
2019-03-08T03:50:52.330Z,7.16
2019-03-08T03:52:58.598Z,7.14
2019-03-08T03:55:06.673Z,7.13
2019-03-08T03:57:12.952Z,7.14
2019-03-08T03:59:19.012Z,7.13
2019-03-08T04:01:26.912Z,7.07
2019-03-08T04:03:33.184Z,7.11
2019-03-08T04:05:39.331Z,7.10
2019-03-08T04:07:45.595Z,7.15
2019-03-08T04:09:51.848Z,7.15
2019-03-08T04:11:59.039Z,7.08
2019-03-08T04:14:05.305Z,7.01
2019-03-08T04:16:11.555Z,7.00
2019-03-08T04:18:17.803Z,7.04
2019-03-08T04:20:23.956Z,7.05
2019-03-08T04:22:30.107Z,7.08
2019-03-08T04:24:36.487Z,7.06
2019-03-08T04:26:42.736Z,7.03
2019-03-08T04:28:49.318Z,7.00
2019-03-08T04:30:55.589Z,7.03
2019-03-08T04:33:01.721Z,7.05
2019-03-08T04:35:08.301Z,7.04
2019-03-08T04:37:14.444Z,7.02
2019-03-08T04:39:20.634Z,7.00
2019-03-08T04:41:26.991Z,6.96
2019-03-08T04:43:33.392Z,6.97
2019-03-08T04:45:41.172Z,7.05
2019-03-08T04:47:47.932Z,6.98
2019-03-08T04:49:54.480Z,6.98
2019-03-08T04:52:01.974Z,6.92
2019-03-08T04:54:08.119Z,6.87
2019-03-08T04:56:14.683Z,6.81
2019-03-08T04:58:20.851Z,6.76
2019-03-08T05:00:27.090Z,6.79
2019-03-08T05:02:33.269Z,6.77
2019-03-08T05:04:39.524Z,6.78
2019-03-08T05:06:45.788Z,6.83
2019-03-08T05:08:52.258Z,6.81
2019-03-08T05:10:58.401Z,6.79
2019-03-08T05:13:04.566Z,6.78
2019-03-08T05:15:11.420Z,6.71
2019-03-08T05:17:18.823Z,6.80
2019-03-08T05:19:24.993Z,6.91
2019-03-08T05:21:31.259Z,6.89
2019-03-08T05:23:37.513Z,6.92
2019-03-08T05:25:43.672Z,7.00
2019-03-08T05:27:49.934Z,7.11
2019-03-08T05:29:56.082Z,7.18
2019-03-08T05:32:02.124Z,7.24
2019-03-08T05:34:08.303Z,7.27
2019-03-08T05:36:14.553Z,7.26
2019-03-08T05:38:20.718Z,7.24
2019-03-08T05:40:26.878Z,7.15
2019-03-08T05:42:33.044Z,7.09
2019-03-08T05:44:39.085Z,7.11
2019-03-08T05:46:45.251Z,7.11
2019-03-08T05:48:51.698Z,7.17
2019-03-08T05:50:57.877Z,7.15
2019-03-08T05:53:04.233Z,7.17
2019-03-08T05:55:12.195Z,7.16
2019-03-08T05:57:18.376Z,7.18
2019-03-08T05:59:24.660Z,7.18
2019-03-08T06:01:31.036Z,7.21
2019-03-08T06:03:37.256Z,7.22
2019-03-08T06:05:43.333Z,7.25
2019-03-08T06:07:49.492Z,7.37
2019-03-08T06:09:55.648Z,7.38
2019-03-08T06:12:01.906Z,7.45
2019-03-08T06:14:08.470Z,7.51
2019-03-08T06:16:15.708Z,7.59
2019-03-08T06:18:24.491Z,7.65
2019-03-08T06:20:35.306Z,7.73
2019-03-08T06:22:45.105Z,7.78
2019-03-08T06:24:53.002Z,7.84
2019-03-08T06:27:03.679Z,7.96
2019-03-08T06:29:12.969Z,8.00
2019-03-08T06:31:19.338Z,8.04
2019-03-08T06:33:31.529Z,8.11
2019-03-08T06:35:37.810Z,8.16
2019-03-08T06:37:47.668Z,8.25
2019-03-08T06:39:54.028Z,8.34
2019-03-08T06:42:00.279Z,8.48
2019-03-08T06:44:06.539Z,8.58
2019-03-08T06:46:13.093Z,8.61
2019-03-08T06:48:19.361Z,8.68
2019-03-08T06:50:25.627Z,8.71
2019-03-08T06:52:31.902Z,8.72
2019-03-08T06:54:39.676Z,8.75
2019-03-08T06:56:45.818Z,8.80
2019-03-08T06:58:54.041Z,8.86
2019-03-08T07:01:00.102Z,8.92
2019-03-08T07:03:09.030Z,8.95
2019-03-08T07:05:15.398Z,8.98
2019-03-08T07:07:21.638Z,9.09
2019-03-08T07:09:27.916Z,9.16
2019-03-08T07:11:34.176Z,9.22
2019-03-08T07:13:41.013Z,9.28
2019-03-08T07:15:47.184Z,9.35
2019-03-08T07:17:53.346Z,9.40
2019-03-08T07:20:01.159Z,9.45
2019-03-08T07:22:09.159Z,9.48
2019-03-08T07:24:16.957Z,9.52
2019-03-08T07:26:36.918Z,9.53
2019-03-08T07:28:57.937Z,9.55
2019-03-08T07:31:12.779Z,9.61
2019-03-08T07:33:20.403Z,9.67
2019-03-08T07:35:37.380Z,9.73
2019-03-08T07:38:01.080Z,9.75
2019-03-08T07:40:11.316Z,9.79
2019-03-08T07:42:21.586Z,9.82
2019-03-08T07:44:27.546Z,9.85
2019-03-08T07:46:35.316Z,9.93
2019-03-08T07:48:55.193Z,9.98
2019-03-08T07:51:07.097Z,10.02
2019-03-08T07:53:20.646Z,10.10
2019-03-08T07:55:46.395Z,10.18
2019-03-08T07:58:03.884Z,10.23
2019-03-08T08:00:20.790Z,10.23
2019-03-08T08:02:34.319Z,10.37
2019-03-08T08:04:42.022Z,10.47
2019-03-08T08:06:49.794Z,10.58
2019-03-08T08:08:58.736Z,10.71
2019-03-08T08:11:07.656Z,10.65
2019-03-08T08:13:30.913Z,10.64
2019-03-08T08:15:56.126Z,10.66
2019-03-08T08:18:06.786Z,10.75
2019-03-08T08:20:16.578Z,10.87
2019-03-08T08:22:40.563Z,11.01
2019-03-08T08:24:51.047Z,11.08
2019-03-08T08:27:02.834Z,11.21
2019-03-08T08:29:21.175Z,11.28
2019-03-08T08:31:32.156Z,11.22
2019-03-08T08:33:45.896Z,11.31
2019-03-08T08:36:08.608Z,11.18
2019-03-08T08:38:32.355Z,11.19
2019-03-08T08:40:56.253Z,11.12
2019-03-08T08:43:02.137Z,11.36
2019-03-08T08:45:20.030Z,11.35
2019-03-08T08:47:47.365Z,11.23
2019-03-08T08:49:55.462Z,11.41
2019-03-08T08:52:08.158Z,11.48
2019-03-08T08:54:25.560Z,11.76
2019-03-08T08:56:50.254Z,11.91
2019-03-08T08:59:02.369Z,11.85
2019-03-08T09:01:29.617Z,11.72
2019-03-08T09:03:53.549Z,11.72
2019-03-08T09:06:10.951Z,11.84
2019-03-08T09:08:20.045Z,11.81
2019-03-08T09:10:27.759Z,11.87
2019-03-08T09:12:40.327Z,12.05
2019-03-08T09:14:48.115Z,12.10
2019-03-08T09:16:58.637Z,12.09
2019-03-08T09:19:17.144Z,12.07
2019-03-08T09:21:25.833Z,11.98
2019-03-08T09:23:40.709Z,11.97
2019-03-08T09:25:48.612Z,12.15
2019-03-08T09:28:12.474Z,12.12
2019-03-08T09:30:27.754Z,11.73
2019-03-08T09:32:58.955Z,11.57
2019-03-08T09:35:02.283Z,11.43
2019-03-08T09:37:22.988Z,11.50
2019-03-08T09:39:33.854Z,11.45
2019-03-08T09:41:55.676Z,11.26
2019-03-08T09:44:05.030Z,11.13
2019-03-08T09:46:19.033Z,11.07
2019-03-08T09:48:26.753Z,11.06
2019-03-08T09:50:44.762Z,11.03
2019-03-08T09:52:56.687Z,10.99
2019-03-08T09:55:07.440Z,10.96
2019-03-08T09:57:19.238Z,10.95
2019-03-08T09:59:28.463Z,11.04
2019-03-08T10:01:52.646Z,11.10
2019-03-08T10:04:07.606Z,11.18
2019-03-08T10:06:21.356Z,11.30
2019-03-08T10:08:41.440Z,11.31
2019-03-08T10:10:47.247Z,11.27
2019-03-08T10:13:12.972Z,11.25
2019-03-08T10:15:35.738Z,11.26
2019-03-08T10:17:58.786Z,11.27
2019-03-08T10:20:25.028Z,11.48
2019-03-08T10:22:38.555Z,11.55
2019-03-08T10:24:55.454Z,11.68
2019-03-08T10:27:19.222Z,11.68
2019-03-08T10:29:27.013Z,11.76
2019-03-08T10:31:34.714Z,11.99
2019-03-08T10:33:59.209Z,12.23
2019-03-08T10:36:07.804Z,12.45
2019-03-08T10:38:22.398Z,12.59
2019-03-08T10:40:38.168Z,12.74
2019-03-08T10:42:45.964Z,12.81
2019-03-08T10:44:56.795Z,12.64
2019-03-08T10:47:21.516Z,12.53
2019-03-08T10:49:33.414Z,12.35
2019-03-08T10:51:48.063Z,12.18
2019-03-08T10:54:00.638Z,11.88
2019-03-08T10:56:10.122Z,11.75
2019-03-08T10:58:17.911Z,11.79
2019-03-08T11:00:34.724Z,11.75
2019-03-08T11:02:49.757Z,11.84
2019-03-08T11:05:03.613Z,11.71
2019-03-08T11:07:29.756Z,11.59
2019-03-08T11:09:44.550Z,11.58
2019-03-08T11:11:55.352Z,11.58
2019-03-08T11:14:11.865Z,11.46
2019-03-08T11:16:19.666Z,11.45
2019-03-08T11:18:43.667Z,11.45
2019-03-08T11:20:58.806Z,11.42
2019-03-08T11:23:21.573Z,11.44
2019-03-08T11:25:35.414Z,11.47
2019-03-08T11:27:52.767Z,11.44
2019-03-08T11:30:00.811Z,11.46
2019-03-08T11:32:22.769Z,11.47
2019-03-08T11:34:28.611Z,11.47
2019-03-08T11:36:40.977Z,11.61
2019-03-08T11:38:51.860Z,11.66
2019-03-08T11:41:13.031Z,11.61
2019-03-08T11:43:27.238Z,11.62
2019-03-08T11:45:40.677Z,11.47
2019-03-08T11:47:49.463Z,11.31
2019-03-08T11:50:02.722Z,11.35
2019-03-08T11:52:19.713Z,11.29
2019-03-08T11:54:29.565Z,11.31
2019-03-08T11:56:55.651Z,11.36
2019-03-08T11:59:12.557Z,11.39
2019-03-08T12:01:38.313Z,11.41
2019-03-08T12:03:58.073Z,11.39
2019-03-08T12:06:13.055Z,11.40
2019-03-08T12:08:31.230Z,11.49
2019-03-08T12:10:37.146Z,11.61
2019-03-08T12:12:46.523Z,11.59
2019-03-08T12:14:52.636Z,11.55
2019-03-08T12:17:06.474Z,11.54
2019-03-08T12:19:30.351Z,11.55
2019-03-08T12:21:54.527Z,11.50
2019-03-08T12:24:08.353Z,11.46
2019-03-08T12:26:16.151Z,11.47
2019-03-08T12:28:36.154Z,11.48
2019-03-08T12:30:43.882Z,11.61
2019-03-08T12:33:00.518Z,11.68
2019-03-08T12:35:14.897Z,11.67
2019-03-08T12:37:22.707Z,11.72
2019-03-08T12:39:30.476Z,11.71
2019-03-08T12:44:14.126Z,11.70
2019-03-08T12:46:21.930Z,11.72
2019-03-08T12:48:46.497Z,11.61
2019-03-08T12:51:12.235Z,11.54
2019-03-08T12:53:27.089Z,11.53
2019-03-08T12:55:37.467Z,11.37
2019-03-08T12:57:52.327Z,11.31
2019-03-08T13:00:00.338Z,11.28
2019-03-08T13:02:26.240Z,11.35
2019-03-08T13:04:37.721Z,11.40
2019-03-08T13:06:45.476Z,11.49
2019-03-08T13:08:53.194Z,11.54
2019-03-08T13:10:59.376Z,11.53
2019-03-08T13:13:05.627Z,11.53
2019-03-08T13:15:15.753Z,11.56
2019-03-08T13:17:21.795Z,11.58
2019-03-08T13:19:27.997Z,11.62
2019-03-08T13:21:34.314Z,11.67
2019-03-08T13:23:40.489Z,11.74
2019-03-08T13:25:46.668Z,11.78
2019-03-08T13:27:53.046Z,11.86
2019-03-08T13:29:59.283Z,11.87
2019-03-08T13:32:05.941Z,11.88
2019-03-08T13:34:12.118Z,11.89
2019-03-08T13:36:18.383Z,11.92
2019-03-08T13:38:24.527Z,11.90
2019-03-08T13:40:30.716Z,11.88
2019-03-08T13:42:36.968Z,11.90
2019-03-08T13:44:43.145Z,11.85
2019-03-08T13:46:49.341Z,11.81
2019-03-08T13:48:55.550Z,11.71
2019-03-08T13:51:01.721Z,11.64
2019-03-08T13:53:08.161Z,11.59
2019-03-08T13:55:18.606Z,11.56
2019-03-08T13:57:24.713Z,11.53
2019-03-08T13:59:30.852Z,11.46
2019-03-08T14:01:38.486Z,11.45
2019-03-08T14:03:44.806Z,11.35
2019-03-08T14:05:51.348Z,11.24
2019-03-08T14:07:57.629Z,11.25
2019-03-08T14:10:05.028Z,11.21
2019-03-08T14:12:11.455Z,11.22
2019-03-08T14:14:17.736Z,11.22
2019-03-08T14:16:24.187Z,11.25
2019-03-08T14:18:30.557Z,11.19
2019-03-08T14:20:36.926Z,11.11
2019-03-08T14:22:43.199Z,11.01
2019-03-08T14:24:49.740Z,10.92
2019-03-08T14:26:55.914Z,10.87
2019-03-08T14:29:01.998Z,10.78
2019-03-08T14:31:15.800Z,10.73
2019-03-08T14:33:22.076Z,10.71
2019-03-08T14:35:29.665Z,10.69
2019-03-08T14:37:36.410Z,10.63
2019-03-08T14:39:44.305Z,10.60
2019-03-08T14:42:03.784Z,10.53
2019-03-08T14:44:13.868Z,10.49
2019-03-08T14:46:22.170Z,10.48
2019-03-08T14:48:30.075Z,10.48
2019-03-08T14:50:37.077Z,10.49
2019-03-08T14:52:43.389Z,10.51
2019-03-08T14:54:49.647Z,10.52
2019-03-08T14:56:55.907Z,10.49
2019-03-08T14:59:02.067Z,10.47
2019-03-08T15:01:08.328Z,10.40
2019-03-08T15:03:15.518Z,10.36
2019-03-08T15:05:21.974Z,10.35
2019-03-08T15:07:29.134Z,10.31
2019-03-08T15:09:35.783Z,10.32
2019-03-08T15:11:42.197Z,10.31
2019-03-08T15:13:48.441Z,10.29
2019-03-08T15:15:58.035Z,10.27
2019-03-08T15:18:03.408Z,10.23
2019-03-08T15:20:18.803Z,10.25
2019-03-08T15:22:25.559Z,10.22
2019-03-08T15:24:38.378Z,10.22
2019-03-08T15:26:40.495Z,10.20
2019-03-08T15:28:46.696Z,10.16
2019-03-08T15:30:54.037Z,10.10
2019-03-08T15:33:01.703Z,10.00
2019-03-08T15:35:11.206Z,9.93
2019-03-08T15:37:17.367Z,9.85
2019-03-08T15:39:23.525Z,9.80
2019-03-08T15:41:29.594Z,9.76
2019-03-08T15:43:36.997Z,9.73
2019-03-08T15:45:46.145Z,9.68
2019-03-08T15:47:52.583Z,9.63
2019-03-08T15:49:58.980Z,9.59
2019-03-08T15:52:05.533Z,9.59
2019-03-08T15:54:12.568Z,9.56
2019-03-08T15:56:19.558Z,9.54
2019-03-08T15:58:26.013Z,9.53
2019-03-08T16:00:33.544Z,9.51
2019-03-08T16:02:39.676Z,9.52
2019-03-08T16:04:50.056Z,9.50
2019-03-08T16:06:56.482Z,9.48
2019-03-08T16:09:02.605Z,9.48
2019-03-08T16:11:10.138Z,9.47
2019-03-08T16:13:16.608Z,9.46
2019-03-08T16:15:23.043Z,9.43
2019-03-08T16:17:29.206Z,9.39
2019-03-08T16:19:37.011Z,9.33
2019-03-08T16:21:46.676Z,9.26
2019-03-08T16:23:51.816Z,9.19
2019-03-08T16:25:58.885Z,9.10
2019-03-08T16:28:06.765Z,9.10
2019-03-08T16:30:47.620Z,9.04
2019-03-08T16:33:06.386Z,9.01
2019-03-08T16:35:12.383Z,8.93
2019-03-08T16:37:21.371Z,8.84
2019-03-08T16:39:28.961Z,8.81
2019-03-08T16:41:49.954Z,8.76
2019-03-08T16:44:10.461Z,8.71
2019-03-08T16:46:34.857Z,8.72
2019-03-08T16:48:55.966Z,8.70
2019-03-08T16:51:23.122Z,8.71
2019-03-08T16:53:48.735Z,8.68
2019-03-08T16:56:10.745Z,8.67
2019-03-08T16:58:21.316Z,8.71
2019-03-08T17:00:44.584Z,8.69
2019-03-08T17:02:53.318Z,8.59
2019-03-08T17:05:01.297Z,8.58
2019-03-08T17:07:25.159Z,8.53
2019-03-08T17:09:35.761Z,8.45
2019-03-08T17:11:48.347Z,8.34
2019-03-08T17:13:57.851Z,8.23
2019-03-08T17:16:08.843Z,8.12
2019-03-08T17:18:34.868Z,7.99
2019-03-08T17:20:59.250Z,7.89
2019-03-08T17:23:17.508Z,7.90
2019-03-08T17:25:34.495Z,8.03
2019-03-08T17:27:58.199Z,8.02
2019-03-08T17:30:07.811Z,7.97
2019-03-08T17:32:24.545Z,7.88
2019-03-08T17:34:30.731Z,7.91
2019-03-08T17:36:44.600Z,8.02
2019-03-08T17:38:54.870Z,8.05
2019-03-08T17:41:11.434Z,8.11
2019-03-08T17:43:19.564Z,8.14
2019-03-08T17:45:43.762Z,8.13
2019-03-08T17:48:07.141Z,8.14
2019-03-08T17:50:32.034Z,8.19
2019-03-08T17:52:41.515Z,8.21
2019-03-08T17:54:55.293Z,8.20
2019-03-08T17:57:09.954Z,8.11
2019-03-08T17:59:18.160Z,8.09
2019-03-08T18:01:32.080Z,8.11
2019-03-08T18:03:41.225Z,8.09
2019-03-08T18:05:54.967Z,8.08
2019-03-08T18:08:02.734Z,8.03
2019-03-08T18:10:10.363Z,8.02
2019-03-08T18:12:36.499Z,8.00
2019-03-08T18:14:49.619Z,7.94
2019-03-08T18:16:58.934Z,7.88
2019-03-08T18:19:25.375Z,7.82
2019-03-08T18:21:33.599Z,7.78
2019-03-08T18:23:48.119Z,7.77
2019-03-08T18:25:56.318Z,7.79
2019-03-08T18:28:22.351Z,7.77
2019-03-08T18:30:34.962Z,7.74
2019-03-08T18:32:54.212Z,7.66
2019-03-08T18:35:11.237Z,7.60
2019-03-08T18:37:22.302Z,7.54
2019-03-08T18:39:31.135Z,7.50
2019-03-08T18:41:48.448Z,7.48
2019-03-08T18:43:56.658Z,7.48
2019-03-08T18:46:08.649Z,7.48
2019-03-08T18:48:16.655Z,7.49
2019-03-08T18:50:25.056Z,7.49
2019-03-08T18:52:49.337Z,7.46
2019-03-08T18:54:57.568Z,7.41
2019-03-08T18:57:05.762Z,7.35
2019-03-08T18:59:13.780Z,7.29
2019-03-08T19:01:38.458Z,7.29
2019-03-08T19:03:49.421Z,7.24
2019-03-08T19:06:04.740Z,7.24
2019-03-08T19:08:20.727Z,7.20
2019-03-08T19:10:31.956Z,7.14
2019-03-08T19:12:46.738Z,7.11
2019-03-08T19:14:59.053Z,7.03
2019-03-08T19:17:25.637Z,7.06
2019-03-08T19:19:33.868Z,7.06
2019-03-08T19:21:49.316Z,7.03
2019-03-08T19:24:03.271Z,6.97
2019-03-08T19:26:17.297Z,6.96
2019-03-08T19:28:38.526Z,6.94
2019-03-08T19:30:46.703Z,6.94
2019-03-08T19:33:11.020Z,6.93
2019-03-08T19:35:36.324Z,6.97
2019-03-08T19:38:03.486Z,6.92
2019-03-08T19:40:16.358Z,6.87
2019-03-08T19:42:26.144Z,6.79
2019-03-08T19:44:53.838Z,6.72
2019-03-08T19:47:18.505Z,6.63
2019-03-08T19:49:34.007Z,6.55
2019-03-08T19:51:54.579Z,6.53
2019-03-08T19:54:12.011Z,6.50
2019-03-08T19:56:36.488Z,6.47
2019-03-08T19:58:47.946Z,6.46
2019-03-08T20:00:58.446Z,6.50
2019-03-08T20:03:09.935Z,6.43
2019-03-08T20:05:21.177Z,6.34
2019-03-08T20:07:41.778Z,6.22
2019-03-08T20:09:53.478Z,6.12
2019-03-08T20:12:17.348Z,6.05
2019-03-08T20:14:39.062Z,5.99
2019-03-08T20:16:47.270Z,5.92
2019-03-08T20:19:04.604Z,5.90
2019-03-08T20:21:12.720Z,5.85
2019-03-08T20:23:38.009Z,5.78
2019-03-08T20:25:49.280Z,5.74
2019-03-08T20:27:57.582Z,5.71
2019-03-08T20:30:12.638Z,5.71
2019-03-08T20:32:23.399Z,5.70
2019-03-08T20:34:36.527Z,5.66
2019-03-08T20:36:47.513Z,5.62
2019-03-08T20:38:53.721Z,5.60
2019-03-08T20:41:06.560Z,5.57
2019-03-08T20:43:14.739Z,5.48
2019-03-08T20:45:39.585Z,5.44
2019-03-08T20:47:47.758Z,5.35
2019-03-08T20:49:56.156Z,5.28
2019-03-08T20:52:02.834Z,5.28
2019-03-08T20:54:09.435Z,5.30
2019-03-08T20:56:15.978Z,5.29
2019-03-08T20:58:22.559Z,5.22
2019-03-08T21:00:29.197Z,5.19
2019-03-08T21:02:35.357Z,5.15
2019-03-08T21:05:00.319Z,5.10
2019-03-08T21:07:09.119Z,5.04
2019-03-08T21:09:15.887Z,4.97
2019-03-08T21:11:24.505Z,4.90
2019-03-08T21:13:30.688Z,4.79
2019-03-08T21:15:37.226Z,4.74
2019-03-08T21:17:43.978Z,4.70
2019-03-08T21:19:53.116Z,4.71
2019-03-08T21:21:59.411Z,4.74
2019-03-08T21:24:06.048Z,4.73
2019-03-08T21:26:12.825Z,4.70
2019-03-08T21:28:19.640Z,4.73
2019-03-08T21:30:27.386Z,4.70
2019-03-08T21:32:34.545Z,4.65
2019-03-08T21:34:40.994Z,4.59
2019-03-08T21:36:47.704Z,4.52
2019-03-08T21:38:55.580Z,4.48
2019-03-08T21:41:05.882Z,4.43
2019-03-08T21:43:14.397Z,4.38
2019-03-08T21:45:22.391Z,4.42
2019-03-08T21:47:28.938Z,4.44
2019-03-08T21:49:35.516Z,4.45
2019-03-08T21:51:41.962Z,4.47
2019-03-08T21:53:49.488Z,4.44
2019-03-08T21:55:56.853Z,4.48
2019-03-08T21:58:04.371Z,4.47
2019-03-08T22:00:26.084Z,4.44
2019-03-08T22:02:32.832Z,4.38
2019-03-08T22:04:42.838Z,4.35
2019-03-08T22:06:50.962Z,4.30
2019-03-08T22:09:12.712Z,4.28
2019-03-08T22:11:20.692Z,4.24
2019-03-08T22:13:26.848Z,4.19
2019-03-08T22:15:33.032Z,4.17
2019-03-08T22:17:39.393Z,4.11
2019-03-08T22:19:46.731Z,4.09
2019-03-08T22:21:55.301Z,4.08
2019-03-08T22:24:01.762Z,4.09
2019-03-08T22:26:08.930Z,4.07
2019-03-08T22:28:15.201Z,4.00
2019-03-08T22:30:22.691Z,4.04
2019-03-08T22:32:29.158Z,4.00
2019-03-08T22:34:35.496Z,3.97
2019-03-08T22:36:41.790Z,3.97
2019-03-08T22:38:48.020Z,3.98
2019-03-08T22:40:54.600Z,3.94
2019-03-08T22:43:00.991Z,3.88
2019-03-08T22:45:12.653Z,3.80
2019-03-08T22:47:18.925Z,3.73
2019-03-08T22:49:25.130Z,3.66
2019-03-08T22:51:31.634Z,3.65
2019-03-08T22:53:38.405Z,3.62
2019-03-08T22:55:45.472Z,3.53
2019-03-08T22:57:53.063Z,3.52
2019-03-08T22:59:59.339Z,3.46
2019-03-08T23:02:08.652Z,3.42
2019-03-08T23:04:14.941Z,3.35
2019-03-08T23:06:21.293Z,3.26
2019-03-08T23:08:27.544Z,3.24
2019-03-08T23:10:34.440Z,3.20
2019-03-08T23:12:40.965Z,3.17
2019-03-08T23:14:47.352Z,3.12
2019-03-08T23:16:53.817Z,3.11
2019-03-08T23:19:00.038Z,3.11
2019-03-08T23:21:06.233Z,3.11
2019-03-08T23:23:12.488Z,3.10
2019-03-08T23:25:19.544Z,3.16
2019-03-08T23:27:28.152Z,3.17
2019-03-08T23:29:35.979Z,3.18
2019-03-08T23:31:55.563Z,3.19
2019-03-08T23:34:02.852Z,3.20
2019-03-08T23:36:09.241Z,3.22
2019-03-08T23:38:15.685Z,3.20
2019-03-08T23:40:21.848Z,3.18
2019-03-08T23:42:28.093Z,3.18
2019-03-08T23:44:34.353Z,3.20
2019-03-08T23:46:40.799Z,3.20
2019-03-08T23:48:47.177Z,3.20
2019-03-08T23:50:53.333Z,3.15
2019-03-08T23:52:59.792Z,3.13
2019-03-08T23:55:09.962Z,3.08
2019-03-08T23:57:16.193Z,3.04
2019-03-08T23:59:22.473Z,3.06
